createdAt,value
2018-08-09T00:00:51.553Z,99927.52
2018-08-09T00:03:20.528Z,99920.71
2018-08-09T00:05:49.432Z,99926.09
2018-08-09T00:08:18.345Z,99923.50
2018-08-09T00:10:47.248Z,99929.94
2018-08-09T00:13:16.194Z,99927.72
2018-08-09T00:15:45.096Z,99927.62
2018-08-09T00:18:14.015Z,99929.55
2018-08-09T00:20:42.903Z,99927.62
2018-08-09T00:23:11.828Z,99934.66
2018-08-09T00:25:40.844Z,99936.84
2018-08-09T00:28:09.711Z,99935.20
2018-08-09T00:30:38.684Z,99940.20
2018-08-09T00:33:07.703Z,99939.30
2018-08-09T00:35:36.634Z,99937.52
2018-08-09T00:38:05.614Z,99932.66
2018-08-09T00:40:34.632Z,99936.41
2018-08-09T00:43:04.569Z,99936.06
2018-08-09T00:45:33.618Z,99934.80
2018-08-09T00:48:02.744Z,99930.85
2018-08-09T00:50:31.647Z,99927.75
2018-08-09T00:53:00.591Z,99921.94
2018-08-09T00:55:29.564Z,99921.80
2018-08-09T00:57:58.587Z,99927.36
2018-08-09T01:00:27.550Z,99919.84
2018-08-09T01:02:56.543Z,99923.02
2018-08-09T01:05:25.511Z,99918.73
2018-08-09T01:07:54.563Z,99916.22
2018-08-09T01:10:23.511Z,99917.58
2018-08-09T01:12:52.602Z,99921.86
2018-08-09T01:15:21.521Z,99931.63
2018-08-09T01:17:50.587Z,99934.67
2018-08-09T01:20:20.691Z,99939.33
2018-08-09T01:22:49.837Z,99941.34
2018-08-09T01:25:18.795Z,99943.41
2018-08-09T01:27:47.846Z,99937.70
2018-08-09T01:30:17.038Z,99933.83
2018-08-09T01:32:46.009Z,99932.84
2018-08-09T01:35:14.956Z,99931.16
2018-08-09T01:37:43.963Z,99934.24
2018-08-09T01:40:12.950Z,99943.11
2018-08-09T01:42:53.348Z,99944.12
2018-08-09T01:45:22.365Z,99942.13
2018-08-09T01:47:51.384Z,99943.02
2018-08-09T01:50:20.418Z,99945.30
2018-08-09T01:52:49.451Z,99946.66
2018-08-09T01:55:18.523Z,99941.44
2018-08-09T01:57:47.457Z,99942.14
2018-08-09T02:00:16.406Z,99949.39
2018-08-09T02:02:45.396Z,99963.78
2018-08-09T02:05:15.013Z,99962.42
2018-08-09T02:07:44.067Z,99960.73
2018-08-09T02:10:13.088Z,99961.52
2018-08-09T02:12:42.056Z,99953.03
2018-08-09T02:15:10.958Z,99957.94
2018-08-09T02:17:40.292Z,99946.03
2018-08-09T02:20:09.203Z,99941.61
2018-08-09T02:22:38.095Z,99943.05
2018-08-09T02:25:07.004Z,99949.58
2018-08-09T02:27:35.941Z,99954.11
2018-08-09T02:30:05.803Z,99961.69
2018-08-09T02:32:34.687Z,99957.16
2018-08-09T02:35:03.614Z,99964.42
2018-08-09T02:37:32.532Z,99965.45
2018-08-09T02:40:01.459Z,99967.84
2018-08-09T02:42:30.553Z,99962.61
2018-08-09T02:44:59.463Z,99963.61
2018-08-09T02:47:28.363Z,99965.91
2018-08-09T02:49:57.294Z,99972.83
2018-08-09T02:52:26.307Z,99970.48
2018-08-09T02:54:55.311Z,99968.88
2018-08-09T02:57:24.320Z,99966.73
2018-08-09T02:59:53.347Z,99963.34
2018-08-09T03:02:22.227Z,99964.01
2018-08-09T03:04:51.151Z,99965.04
2018-08-09T03:07:20.105Z,99969.57
2018-08-09T03:09:49.007Z,99977.39
2018-08-09T03:12:17.955Z,99981.68
2018-08-09T03:14:47.127Z,99982.25
2018-08-09T03:17:16.121Z,99975.12
2018-08-09T03:19:44.955Z,99981.26
2018-08-09T03:22:13.896Z,99986.23
2018-08-09T03:24:42.859Z,99985.55
2018-08-09T03:27:11.811Z,99989.41
2018-08-09T03:29:40.744Z,99989.95
2018-08-09T03:32:09.692Z,99994.39
2018-08-09T03:34:38.628Z,99999.83
2018-08-09T03:37:08.632Z,99999.95
2018-08-09T03:39:37.563Z,100000.62
2018-08-09T03:42:06.527Z,100007.28
2018-08-09T03:44:35.514Z,100007.73
2018-08-09T03:47:04.488Z,100003.66
2018-08-09T03:49:33.435Z,100004.69
2018-08-09T03:52:02.408Z,100009.55
2018-08-09T03:54:31.383Z,100009.22
2018-08-09T03:57:00.339Z,100014.66
2018-08-09T03:59:29.294Z,100011.58
2018-08-09T04:01:58.202Z,100010.47
2018-08-09T04:04:27.190Z,100012.52
2018-08-09T04:06:56.125Z,100012.84
2018-08-09T04:09:25.068Z,100012.27
2018-08-09T04:11:54.079Z,100010.91
2018-08-09T04:14:23.104Z,100013.87
2018-08-09T04:16:52.018Z,100015.33
2018-08-09T04:19:20.967Z,100010.34
2018-08-09T04:21:49.939Z,100018.84
2018-08-09T04:24:18.854Z,100013.85
2018-08-09T04:26:47.784Z,100017.02
2018-08-09T04:29:16.684Z,100015.22
2018-08-09T04:31:45.601Z,100016.34
2018-08-09T04:34:14.540Z,100011.11
2018-08-09T04:36:43.463Z,100018.12
2018-08-09T04:39:12.462Z,100015.55
2018-08-09T04:41:41.432Z,100016.34
2018-08-09T04:44:10.339Z,100015.84
2018-08-09T04:46:39.270Z,100019.02
2018-08-09T04:49:08.257Z,100014.23
2018-08-09T04:51:37.185Z,100016.49
2018-08-09T04:54:06.128Z,100011.92
2018-08-09T04:56:35.048Z,100019.22
2018-08-09T04:59:04.767Z,100015.09
2018-08-09T05:01:33.662Z,100014.06
2018-08-09T05:04:02.581Z,100015.95
2018-08-09T05:06:31.544Z,100014.78
2018-08-09T05:09:00.475Z,100021.81
2018-08-09T05:11:29.401Z,100027.93
2018-08-09T05:13:58.323Z,100025.53
2018-08-09T05:16:27.264Z,100024.30
2018-08-09T05:18:56.178Z,100031.91
2018-08-09T05:21:25.082Z,100028.72
2018-08-09T05:23:54.032Z,100025.77
2018-08-09T05:26:22.966Z,100022.52
2018-08-09T05:28:51.884Z,100019.98
2018-08-09T05:31:20.963Z,100018.14
2018-08-09T05:33:49.912Z,100016.98
2018-08-09T05:36:18.864Z,100018.08
2018-08-09T05:38:47.845Z,100013.31
2018-08-09T05:41:16.875Z,100018.18
2018-08-09T05:43:45.862Z,100023.61
2018-08-09T05:46:14.824Z,100027.11
2018-08-09T05:48:43.790Z,100022.99
2018-08-09T05:51:12.755Z,100022.52
2018-08-09T05:53:41.722Z,100019.38
2018-08-09T05:56:10.706Z,100018.52
2018-08-09T05:58:39.703Z,100011.70
2018-08-09T06:01:08.645Z,100015.24
2018-08-09T06:03:37.640Z,100014.63
2018-08-09T06:06:06.571Z,100014.66
2018-08-09T06:08:35.550Z,100006.99
2018-08-09T06:11:04.521Z,100004.70
2018-08-09T06:13:33.522Z,100012.59
2018-08-09T06:16:02.377Z,100014.13
2018-08-09T06:18:31.436Z,100019.82
2018-08-09T06:21:00.397Z,100013.00
2018-08-09T06:23:29.320Z,100020.48
2018-08-09T06:25:58.263Z,100014.38
2018-08-09T06:28:27.205Z,100021.62
2018-08-09T06:30:56.246Z,100022.83
2018-08-09T06:33:25.234Z,100021.44
2018-08-09T06:35:54.135Z,100016.87
2018-08-09T06:38:23.047Z,100004.03
2018-08-09T06:40:52.105Z,100004.53
2018-08-09T06:43:21.116Z,99996.86
2018-08-09T06:45:50.028Z,99997.61
2018-08-09T06:48:19.022Z,100002.56
2018-08-09T06:50:47.993Z,100000.73
2018-08-09T06:53:16.925Z,100002.83
2018-08-09T06:55:45.867Z,99998.40
2018-08-09T06:58:14.792Z,99995.41
2018-08-09T07:00:43.700Z,99995.12
2018-08-09T07:03:12.652Z,99995.36
2018-08-09T07:05:41.643Z,99996.00
2018-08-09T07:08:10.518Z,99995.16
2018-08-09T07:10:39.458Z,100004.02
2018-08-09T07:13:08.373Z,100004.69
2018-08-09T07:15:37.361Z,100008.60
2018-08-09T07:18:06.344Z,100004.76
2018-08-09T07:20:35.273Z,100004.50
2018-08-09T07:23:04.215Z,100003.33
2018-08-09T07:25:33.147Z,100003.56
2018-08-09T07:28:02.166Z,100007.84
2018-08-09T07:30:31.125Z,100011.06
2018-08-09T07:33:00.089Z,100009.81
2018-08-09T07:35:29.046Z,100008.57
2018-08-09T07:37:58.018Z,100000.09
2018-08-09T07:40:26.943Z,100005.05
2018-08-09T07:42:55.868Z,100008.24
2018-08-09T07:45:24.904Z,100007.77
2018-08-09T07:47:53.867Z,100002.34
2018-08-09T07:50:22.803Z,100003.41
2018-08-09T07:52:51.728Z,100003.16
2018-08-09T07:55:20.674Z,100002.45
2018-08-09T07:57:49.628Z,100001.83
2018-08-09T08:00:18.571Z,99999.17
2018-08-09T08:02:47.506Z,100000.63
2018-08-09T08:05:16.455Z,99992.29
2018-08-09T08:07:45.451Z,99987.55
2018-08-09T08:10:14.379Z,99988.52
2018-08-09T08:12:43.352Z,99980.15
2018-08-09T08:15:12.286Z,99972.97
2018-08-09T08:17:41.223Z,99974.52
2018-08-09T08:20:10.526Z,99981.03
2018-08-09T08:22:39.451Z,99983.52
2018-08-09T08:25:08.624Z,99983.83
2018-08-09T08:27:37.752Z,99978.11
2018-08-09T08:30:10.159Z,99975.64
2018-08-09T08:32:39.684Z,99979.80
2018-08-09T08:35:08.695Z,99975.76
2018-08-09T08:37:38.103Z,99971.73
2018-08-09T08:40:07.323Z,99962.07
2018-08-09T08:42:36.697Z,99956.72
2018-08-09T08:45:08.136Z,99955.42
2018-08-09T08:47:37.115Z,99954.31
2018-08-09T08:50:07.205Z,99959.83
2018-08-09T08:52:36.312Z,99955.56
2018-08-09T08:55:07.551Z,99957.07
2018-08-09T08:57:36.496Z,99955.52
2018-08-09T09:00:06.845Z,99953.29
2018-08-09T09:02:35.941Z,99946.41
2018-08-09T09:05:06.287Z,99940.54
2018-08-09T09:07:35.292Z,99934.27
2018-08-09T09:10:04.662Z,99928.88
2018-08-09T09:12:33.630Z,99917.58
2018-08-09T09:15:02.572Z,99916.55
2018-08-09T09:17:31.504Z,99909.94
2018-08-09T09:20:00.469Z,99912.39
2018-08-09T09:22:29.463Z,99908.59
2018-08-09T09:24:58.396Z,99913.58
2018-08-09T09:27:27.323Z,99910.60
2018-08-09T09:29:56.347Z,99906.04
2018-08-09T09:32:25.282Z,99904.21
2018-08-09T09:34:54.235Z,99904.25
2018-08-09T09:37:23.070Z,99899.55
2018-08-09T09:39:52.001Z,99891.83
2018-08-09T09:42:20.905Z,99892.16
2018-08-09T09:44:49.810Z,99887.88
2018-08-09T09:47:18.769Z,99880.72
2018-08-09T09:49:47.687Z,99881.94
2018-08-09T09:52:16.613Z,99878.84
2018-08-09T09:54:45.609Z,99880.67
2018-08-09T09:57:14.570Z,99872.31
2018-08-09T09:59:43.574Z,99864.22
2018-08-09T10:02:12.499Z,99862.27
2018-08-09T10:04:41.428Z,99859.55
2018-08-09T10:07:10.419Z,99851.23
2018-08-09T10:09:39.323Z,99852.19
2018-08-09T10:12:08.326Z,99847.11
2018-08-09T10:14:37.288Z,99838.91
2018-08-09T10:17:06.200Z,99834.27
2018-08-09T10:19:35.099Z,99823.21
2018-08-09T10:22:04.029Z,99816.72
2018-08-09T10:24:32.928Z,99807.97
2018-08-09T10:27:01.869Z,99808.97
2018-08-09T10:29:30.806Z,99802.52
2018-08-09T10:31:59.828Z,99804.35
2018-08-09T10:34:28.743Z,99799.53
2018-08-09T10:36:57.653Z,99796.64
2018-08-09T10:39:26.588Z,99784.97
2018-08-09T10:41:55.571Z,99792.97
2018-08-09T10:44:24.520Z,99784.77
2018-08-09T10:46:53.427Z,99784.48
2018-08-09T10:49:22.410Z,99775.63
2018-08-09T10:51:51.334Z,99781.66
2018-08-09T10:54:20.315Z,99776.08
2018-08-09T10:56:49.230Z,99777.62
2018-08-09T10:59:18.143Z,99772.61
2018-08-09T11:01:47.104Z,99761.45
2018-08-09T11:04:16.110Z,99762.80
2018-08-09T11:06:45.020Z,99755.81
2018-08-09T11:09:13.944Z,99751.17
2018-08-09T11:11:46.717Z,99738.80
2018-08-09T11:14:15.633Z,99745.06
2018-08-09T11:16:44.612Z,99746.98
2018-08-09T11:19:13.548Z,99752.38
2018-08-09T11:21:42.449Z,99741.06
2018-08-09T11:24:11.353Z,99728.88
2018-08-09T11:26:40.305Z,99744.20
2018-08-09T11:29:09.304Z,99736.70
2018-08-09T11:31:38.235Z,99733.20
2018-08-09T11:34:07.163Z,99726.98
2018-08-09T11:36:36.055Z,99710.72
2018-08-09T11:39:08.407Z,99722.67
2018-08-09T11:41:37.327Z,99717.27
2018-08-09T11:44:06.285Z,99721.78
2018-08-09T11:46:35.250Z,99705.77
2018-08-09T11:49:04.249Z,99710.02
2018-08-09T11:51:33.190Z,99691.84
2018-08-09T11:54:02.144Z,99685.89
2018-08-09T11:56:31.249Z,99699.55
2018-08-09T11:59:00.215Z,99692.14
2018-08-09T12:01:29.239Z,99706.13
2018-08-09T12:03:58.270Z,99685.46
2018-08-09T12:06:27.289Z,99686.92
2018-08-09T12:08:56.291Z,99688.20
2018-08-09T12:11:25.395Z,99683.98
2018-08-09T12:13:54.328Z,99683.76
2018-08-09T12:16:23.349Z,99682.70
2018-08-09T12:18:52.295Z,99677.15
2018-08-09T12:21:21.367Z,99669.59
2018-08-09T12:23:50.317Z,99661.71
2018-08-09T12:26:19.321Z,99658.31
2018-08-09T12:28:48.260Z,99643.94
2018-08-09T12:31:17.256Z,99643.64
2018-08-09T12:33:46.206Z,99635.79
2018-08-09T12:36:15.211Z,99648.25
2018-08-09T12:38:44.264Z,99639.80
2018-08-09T12:41:13.223Z,99633.05
2018-08-09T12:43:42.123Z,99627.52
2018-08-09T12:46:11.054Z,99616.90
2018-08-09T12:48:40.004Z,99612.36
2018-08-09T12:51:09.060Z,99611.67
2018-08-09T12:53:37.999Z,99606.66
2018-08-09T12:56:06.980Z,99596.37
2018-08-09T12:58:36.286Z,99602.77
2018-08-09T13:01:05.332Z,99586.28
2018-08-09T13:03:34.261Z,99589.67
2018-08-09T13:06:03.494Z,99594.46
2018-08-09T13:08:32.434Z,99585.21
2018-08-09T13:11:01.440Z,99576.61
2018-08-09T13:13:30.296Z,99575.52
2018-08-09T13:15:59.239Z,99575.50
2018-08-09T13:18:28.181Z,99573.45
2018-08-09T13:20:57.248Z,99573.73
2018-08-09T13:23:26.267Z,99566.20
2018-08-09T13:25:55.191Z,99581.27
2018-08-09T13:28:24.245Z,99588.08
2018-08-09T13:30:53.353Z,99570.40
2018-08-09T13:33:22.325Z,99561.34
2018-08-09T13:35:51.283Z,99544.66
2018-08-09T13:38:20.245Z,99546.25
2018-08-09T13:40:49.268Z,99526.86
2018-08-09T13:43:18.267Z,99530.63
2018-08-09T13:45:47.259Z,99526.02
2018-08-09T13:48:16.192Z,99533.27
2018-08-09T13:50:45.110Z,99550.11
2018-08-09T13:53:14.185Z,99536.17
2018-08-09T13:55:43.303Z,99521.92
2018-08-09T13:58:12.296Z,99524.05
2018-08-09T14:00:41.309Z,99515.86
2018-08-09T14:03:10.262Z,99508.53
2018-08-09T14:05:39.276Z,99503.70
2018-08-09T14:08:08.272Z,99499.88
2018-08-09T14:10:37.333Z,99496.68
2018-08-09T14:13:06.238Z,99517.72
2018-08-09T14:15:35.180Z,99501.94
2018-08-09T14:18:04.448Z,99494.16
2018-08-09T14:20:33.374Z,99501.32
2018-08-09T14:23:02.320Z,99504.31
2018-08-09T14:25:31.297Z,99498.05
2018-08-09T14:28:00.201Z,99493.93
2018-08-09T14:30:29.215Z,99501.80
2018-08-09T14:32:58.441Z,99496.81
2018-08-09T14:35:27.335Z,99492.52
2018-08-09T14:37:56.361Z,99499.95
2018-08-09T14:40:25.337Z,99509.21
2018-08-09T14:42:54.421Z,99500.53
2018-08-09T14:45:23.451Z,99492.44
2018-08-09T14:47:52.418Z,99491.04
2018-08-09T14:50:21.492Z,99488.20
2018-08-09T14:52:50.420Z,99481.30
2018-08-09T14:55:19.374Z,99485.72
2018-08-09T14:57:48.344Z,99469.83
2018-08-09T15:00:18.866Z,99465.55
2018-08-09T15:02:48.167Z,99467.23
2018-08-09T15:05:17.588Z,99458.55
2018-08-09T15:07:46.521Z,99451.62
2018-08-09T15:10:16.263Z,99447.91
2018-08-09T15:12:45.204Z,99444.63
2018-08-09T15:15:14.159Z,99439.92
2018-08-09T15:17:43.155Z,99443.00
2018-08-09T15:20:13.356Z,99442.31
2018-08-09T15:22:42.441Z,99445.04
2018-08-09T15:25:11.976Z,99444.90
2018-08-09T15:27:40.960Z,99448.46
2018-08-09T15:30:13.454Z,99441.48
2018-08-09T15:32:42.474Z,99441.09
2018-08-09T15:35:11.516Z,99440.48
2018-08-09T15:37:40.479Z,99434.83
2018-08-09T15:40:10.535Z,99431.17
2018-08-09T15:42:39.443Z,99424.52
2018-08-09T15:45:11.080Z,99431.36
2018-08-09T15:47:40.600Z,99430.31
2018-08-09T15:50:13.359Z,99437.66
2018-08-09T15:52:42.796Z,99431.52
2018-08-09T15:55:11.992Z,99422.08
2018-08-09T15:57:40.923Z,99425.04
2018-08-09T16:00:13.154Z,99424.98
2018-08-09T16:02:42.082Z,99424.81
2018-08-09T16:05:10.996Z,99427.07
2018-08-09T16:07:40.012Z,99424.81
2018-08-09T16:10:12.218Z,99426.44
2018-08-09T16:12:41.404Z,99431.20
2018-08-09T16:15:13.778Z,99417.80
2018-08-09T16:17:43.160Z,99423.98
2018-08-09T16:23:12.004Z,99425.44
2018-08-09T16:25:41.038Z,99429.62
2018-08-09T16:28:09.949Z,99415.20
2018-08-09T16:30:38.899Z,99414.54
2018-08-09T16:33:07.798Z,99405.14
2018-08-09T16:35:36.739Z,99410.32
2018-08-09T16:38:05.657Z,99409.44
2018-08-09T16:40:34.560Z,99402.17
2018-08-09T16:43:03.515Z,99398.95
2018-08-09T16:45:32.504Z,99400.52
2018-08-09T16:48:01.453Z,99404.09
2018-08-09T16:50:30.345Z,99402.51
2018-08-09T16:52:59.329Z,99397.89
2018-08-09T16:55:28.770Z,99396.95
2018-08-09T16:57:57.684Z,99393.70
2018-08-09T17:00:26.698Z,99387.35
2018-08-09T17:02:55.929Z,99391.83
2018-08-09T17:05:26.068Z,99390.60
2018-08-09T17:07:55.020Z,99394.66
2018-08-09T17:10:24.859Z,99390.16
2018-08-09T17:12:53.786Z,99388.35
2018-08-09T17:15:24.603Z,99389.89
2018-08-09T17:17:54.128Z,99384.34
2018-08-09T17:20:25.559Z,99382.33
2018-08-09T17:22:54.487Z,99388.21
2018-08-09T17:25:23.470Z,99383.72
2018-08-09T17:27:52.551Z,99380.94
2018-08-09T17:30:23.334Z,99375.53
2018-08-09T17:32:52.208Z,99369.66
2018-08-09T17:35:21.467Z,99373.20
2018-08-09T17:37:50.539Z,99370.25
2018-08-09T17:40:24.464Z,99367.47
2018-08-09T17:42:54.308Z,99363.77
2018-08-09T17:45:26.537Z,99368.25
2018-08-09T17:47:55.483Z,99366.82
2018-08-09T17:50:24.417Z,99365.56
2018-08-09T17:52:53.883Z,99361.84
2018-08-09T17:55:22.905Z,99363.09
2018-08-09T17:57:51.900Z,99368.63
2018-08-09T18:00:25.153Z,99367.53
2018-08-09T18:02:54.542Z,99367.55
2018-08-09T18:05:23.480Z,99371.47
2018-08-09T18:07:53.106Z,99362.34
2018-08-09T18:10:25.283Z,99370.50
2018-08-09T18:12:54.265Z,99370.63
2018-08-09T18:15:24.304Z,99362.14
2018-08-09T18:17:53.370Z,99364.44
2018-08-09T18:20:24.350Z,99358.74
2018-08-09T18:22:53.332Z,99369.16
2018-08-09T18:25:26.887Z,99364.80
2018-08-09T18:27:55.909Z,99364.55
2018-08-09T18:30:24.895Z,99368.34
2018-08-09T18:32:53.991Z,99370.92
2018-08-09T18:35:22.800Z,99370.96
2018-08-09T18:37:51.785Z,99371.59
2018-08-09T18:40:24.084Z,99369.70
2018-08-09T18:42:53.048Z,99365.62
2018-08-09T18:45:22.273Z,99366.98
2018-08-09T18:47:51.276Z,99368.40
2018-08-09T18:50:27.987Z,99370.98
2018-08-09T18:52:57.158Z,99378.17
2018-08-09T18:55:26.104Z,99381.55
2018-08-09T18:57:55.029Z,99378.70
2018-08-09T19:00:25.910Z,99384.26
2018-08-09T19:02:55.047Z,99391.02
2018-08-09T19:05:24.165Z,99387.55
2018-08-09T19:07:53.180Z,99387.05
2018-08-09T19:10:24.527Z,99388.89
2018-08-09T19:12:53.645Z,99389.41
2018-08-09T19:15:22.603Z,99391.73
2018-08-09T19:17:51.739Z,99392.16
2018-08-09T19:20:22.596Z,99390.27
2018-08-09T19:22:51.875Z,99391.78
2018-08-09T19:25:20.832Z,99390.91
2018-08-09T19:27:49.797Z,99387.53
2018-08-09T19:30:20.326Z,99390.36
2018-08-09T19:32:49.441Z,99395.23
2018-08-09T19:35:19.209Z,99396.24
2018-08-09T19:37:48.140Z,99394.81
2018-08-09T19:40:20.348Z,99407.16
2018-08-09T19:42:49.371Z,99416.47
2018-08-09T19:45:18.914Z,99424.09
2018-08-09T19:47:47.859Z,99424.34
2018-08-09T19:50:18.387Z,99428.50
2018-08-09T19:52:47.320Z,99425.68
2018-08-09T19:55:17.715Z,99431.45
2018-08-09T19:57:47.833Z,99508.23
2018-08-09T20:00:24.814Z,99531.69
2018-08-09T20:02:53.745Z,99536.84
2018-08-09T20:05:23.378Z,99539.48
2018-08-09T20:07:52.472Z,99540.33
2018-08-09T20:10:21.402Z,99566.22
2018-08-09T20:12:50.379Z,99566.20
2018-08-09T20:15:20.453Z,99569.13
2018-08-09T20:17:49.416Z,99575.48
2018-08-09T20:20:19.972Z,99586.18
2018-08-09T20:22:48.921Z,99580.48
2018-08-09T20:25:17.935Z,99584.36
2018-08-09T20:27:47.409Z,99593.46
2018-08-09T20:30:17.168Z,99613.37
2018-08-09T20:32:46.667Z,99621.95
2018-08-09T20:35:19.209Z,99640.14
2018-08-09T20:37:48.398Z,99651.77
2018-08-09T20:40:17.916Z,99660.69
2018-08-09T20:42:47.847Z,99665.68
2018-08-09T20:45:18.257Z,99673.83
2018-08-09T20:47:47.187Z,99672.30
2018-08-09T20:50:18.195Z,99682.48
2018-08-09T20:52:47.790Z,99679.20
2018-08-09T20:55:17.007Z,99680.63
2018-08-09T20:57:46.800Z,99689.14
2018-08-09T21:00:19.954Z,99691.92
2018-08-09T21:02:50.242Z,99703.33
2018-08-09T21:05:21.574Z,99703.75
2018-08-09T21:07:51.480Z,99691.86
2018-08-09T21:10:20.771Z,99707.02
2018-08-09T21:12:49.697Z,99715.26
2018-08-09T21:15:19.446Z,99709.98
2018-08-09T21:17:48.372Z,99713.36
2018-08-09T21:20:17.335Z,99722.61
2018-08-09T21:22:47.376Z,99728.50
2018-08-09T21:25:16.423Z,99731.25
2018-08-09T21:27:45.871Z,99726.75
2018-08-09T21:30:18.680Z,99744.42
2018-08-09T21:32:48.192Z,99747.55
2018-08-09T21:35:17.148Z,99757.75
2018-08-09T21:37:46.403Z,99763.41
2018-08-09T21:40:15.755Z,99767.38
2018-08-09T21:42:44.748Z,99765.99
2018-08-09T21:45:18.971Z,99771.86
2018-08-09T21:47:47.956Z,99778.91
2018-08-09T21:50:18.217Z,99783.60
2018-08-09T21:52:47.283Z,99796.16
2018-08-09T21:55:16.256Z,99795.14
2018-08-09T21:57:46.010Z,99793.00
2018-08-09T22:00:55.131Z,99795.33
2018-08-09T22:03:27.358Z,99807.07
2018-08-09T22:06:01.564Z,99809.77
2018-08-09T22:08:35.966Z,99816.41
2018-08-09T22:11:10.699Z,99827.11
2018-08-09T22:13:45.055Z,99844.16
2018-08-09T22:16:19.400Z,99852.76
2018-08-09T22:18:53.708Z,99854.91
2018-08-09T22:21:28.040Z,99854.13
2018-08-09T22:23:57.004Z,99859.73
2018-08-09T22:26:26.007Z,99863.80
2018-08-09T22:28:54.940Z,99873.77
2018-08-09T22:31:23.885Z,99866.91
2018-08-09T22:33:52.811Z,99875.08
2018-08-09T22:36:21.775Z,99879.98
2018-08-09T22:38:50.649Z,99882.13
2018-08-09T22:41:19.661Z,99884.05
2018-08-09T22:43:48.615Z,99885.77
2018-08-09T22:46:17.566Z,99889.66
2018-08-09T22:48:46.487Z,99901.07
2018-08-09T22:51:15.372Z,99896.67
2018-08-09T22:53:44.316Z,99901.80
2018-08-09T22:56:13.287Z,99893.70
2018-08-09T22:58:42.203Z,99898.05
2018-08-09T23:01:11.211Z,99899.83
2018-08-09T23:03:40.132Z,99895.81
2018-08-09T23:06:09.008Z,99896.54
2018-08-09T23:08:37.918Z,99901.17
2018-08-09T23:11:07.352Z,99907.14
2018-08-09T23:13:36.302Z,99909.52
2018-08-09T23:16:05.874Z,99909.97
2018-08-09T23:18:34.802Z,99914.66
2018-08-09T23:21:03.727Z,99923.00
2018-08-09T23:23:32.677Z,99930.66
2018-08-09T23:26:01.639Z,99922.22
2018-08-09T23:28:30.666Z,99928.05
2018-08-09T23:30:59.693Z,99926.55
2018-08-09T23:33:28.662Z,99933.94
2018-08-09T23:35:57.584Z,99933.69
2018-08-09T23:38:27.496Z,99934.81
2018-08-09T23:40:56.458Z,99940.53
2018-08-09T23:46:00.614Z,99943.94
2018-08-09T23:48:29.544Z,99947.09
2018-08-09T23:50:58.485Z,99941.42
2018-08-09T23:53:27.456Z,99941.06
2018-08-09T23:55:56.412Z,99947.71
2018-08-09T23:58:25.384Z,99950.23
